Time;durP1;ratioP1;P1;durP2;ratioP2;P2;SDS_P1;SDS_P2;PMS_P1;PMS_P2;Temp;Humidity;BMP_temperature;BMP_pressure;BME280_temperature;BME280_humidity;BME280_pressure;Samples;Min_cycle;Max_cycle;Signal;HPM_P1;HPM_P2
2022/11/03 00:01:20;;;;;;;4.10;2.73;;;;;;;5.80;100.00;98096.00;18367356;32;20080;-64
2022/11/03 00:11:24;;;;;;;5.23;3.03;;;;;;;5.75;100.00;98102.03;18514974;32;20092;-64
2022/11/03 00:21:27;;;;;;;4.23;2.77;;;;;;;5.65;100.00;98104.47;18569388;31;20079;-64
2022/11/03 00:31:33;;;;;;;4.10;2.83;;;;;;;5.54;100.00;98099.88;18568722;32;20061;-64
2022/11/03 00:41:36;;;;;;;6.73;3.57;;;;;;;5.47;100.00;98107.16;18567840;32;20060;-64
2022/11/03 00:51:39;;;;;;;4.93;3.17;;;;;;;5.40;100.00;98093.88;18553366;32;20112;-64
2022/11/03 01:01:43;;;;;;;4.63;2.87;;;;;;;5.37;100.00;98087.09;18560869;32;20048;-64
2022/11/03 01:11:59;;;;;;;3.93;2.40;;;;;;;5.33;100.00;98072.50;18552090;32;20124;-64
2022/11/03 01:22:02;;;;;;;4.40;2.13;;;;;;;5.28;100.00;98072.34;18565787;32;20052;-64
2022/11/03 01:32:12;;;;;;;6.03;2.10;;;;;;;5.12;100.00;98064.94;18565102;32;20061;-64
2022/11/03 01:42:16;;;;;;;3.63;2.20;;;;;;;4.99;100.00;98049.81;18564473;32;20053;-64
2022/11/03 01:52:41;;;;;;;4.37;2.40;;;;;;;4.87;100.00;98039.03;18563340;31;20093;-64
2022/11/03 02:02:44;;;;;;;4.43;2.60;;;;;;;4.77;100.00;98017.28;18563202;32;20061;-64
2022/11/03 02:12:47;;;;;;;3.23;2.40;;;;;;;4.78;100.00;98002.88;18563254;32;20097;-64
2022/11/03 02:23:11;;;;;;;4.33;2.97;;;;;;;4.81;100.00;97991.69;18561950;32;20330;-64
2022/11/03 02:33:23;;;;;;;3.03;2.53;;;;;;;4.80;100.00;97982.84;18561587;32;20351;-64
2022/11/03 02:43:28;;;;;;;4.10;2.30;;;;;;;4.79;100.00;97962.44;18561321;32;20131;-64
2022/11/03 02:53:38;;;;;;;4.57;2.30;;;;;;;4.66;100.00;97950.06;18539993;32;20064;-64
2022/11/03 03:04:03;;;;;;;2.90;2.43;;;;;;;4.67;100.00;97932.94;18575960;32;20056;-64
2022/11/03 03:14:13;;;;;;;2.70;2.43;;;;;;;4.68;100.00;97910.44;18315001;32;20451;-64
2022/11/03 03:24:43;;;;;;;3.23;2.20;;;;;;;4.75;100.00;97888.94;18314843;32;20074;-64
2022/11/03 03:34:49;;;;;;;2.73;2.23;;;;;;;4.73;100.00;97850.84;18314526;32;20585;-64
2022/11/03 03:44:53;;;;;;;4.73;2.63;;;;;;;4.82;100.00;97852.16;18379576;32;20065;-64
2022/11/03 03:54:56;;;;;;;4.47;2.20;;;;;;;4.81;100.00;97853.22;18580131;32;20128;-64
2022/11/03 04:05:00;;;;;;;3.73;2.40;;;;;;;4.83;100.00;97839.59;18580286;32;20120;-64
2022/11/03 04:25:25;;;;;;;3.73;2.47;;;;;;;4.73;100.00;97806.13;18569345;32;20049;-64
2022/11/03 04:35:28;;;;;;;4.13;3.03;;;;;;;4.71;100.00;97810.91;18568609;32;20057;-64
2022/11/03 04:45:36;;;;;;;4.20;2.60;;;;;;;4.69;100.00;97807.63;18561793;32;20364;-64
2022/11/03 04:55:44;;;;;;;4.97;3.40;;;;;;;4.67;100.00;97800.84;18567275;32;20058;-64
2022/11/03 05:05:48;;;;;;;7.90;3.73;;;;;;;4.61;100.00;97791.88;18552785;32;20053;-64
2022/11/03 05:15:57;;;;;;;8.03;3.57;;;;;;;4.55;100.00;97782.06;18566469;32;20073;-64
2022/11/03 05:26:01;;;;;;;5.90;3.33;;;;;;;4.53;100.00;97774.25;18564799;32;20136;-64
2022/11/03 05:36:15;;;;;;;7.40;3.37;;;;;;;4.57;100.00;97756.69;18562033;32;20500;-64
2022/11/03 05:46:19;;;;;;;4.30;2.47;;;;;;;4.61;100.00;97729.47;18562368;32;20049;-65
2022/11/03 05:56:23;;;;;;;3.20;2.30;;;;;;;4.66;100.00;97733.09;18563343;32;20071;-64
2022/11/03 06:06:35;;;;;;;4.47;3.05;;;;;;;4.69;100.00;97719.22;18563322;32;20097;-64
2022/11/03 06:16:43;;;;;;;5.23;3.00;;;;;;;4.77;100.00;97695.81;18423806;32;20381;-64
2022/11/03 06:26:48;;;;;;;4.67;3.23;;;;;;;4.89;100.00;97683.25;18423288;32;20151;-64
2022/11/03 06:36:51;;;;;;;4.37;3.22;;;;;;;4.89;100.00;97661.81;18409155;32;20116;-65
2022/11/03 06:47:00;;;;;;;8.43;4.93;;;;;;;5.03;100.00;97663.22;18534306;32;20061;-64
2022/11/03 06:57:11;;;;;;;12.17;7.53;;;;;;;5.38;100.00;97670.38;18546452;32;20049;-65
2022/11/03 07:07:14;;;;;;;13.17;9.03;;;;;;;5.74;100.00;97656.88;18560382;32;20436;-64
2022/11/03 07:17:23;;;;;;;11.47;7.80;;;;;;;6.19;100.00;97660.69;18560650;32;20076;-64
2022/11/03 07:27:31;;;;;;;10.67;7.77;;;;;;;6.49;100.00;97663.06;18554045;32;20136;-64
2022/11/03 07:37:35;;;;;;;11.47;7.23;;;;;;;6.81;100.00;97664.38;18559976;32;20068;-65
2022/11/03 07:47:44;;;;;;;9.37;6.73;;;;;;;7.13;100.00;97651.16;18564045;32;20053;-64
2022/11/03 07:57:55;;;;;;;9.87;6.53;;;;;;;7.45;100.00;97664.75;18556941;32;20078;-64
2022/11/03 08:08:05;;;;;;;9.13;6.03;;;;;;;7.75;100.00;97652.69;18431403;32;20516;-64
2022/11/03 08:18:14;;;;;;;9.10;6.37;;;;;;;7.88;100.00;97642.59;18431279;32;20073;-64
2022/11/03 08:28:20;;;;;;;7.33;6.00;;;;;;;8.26;100.00;97630.87;18417522;32;20088;-64
2022/11/03 08:38:55;;;;;;;11.77;7.40;;;;;;;8.74;100.00;97614.84;18453322;32;20342;-64
2022/11/03 08:49:11;;;;;;;8.93;6.30;;;;;;;9.36;100.00;97604.41;18567835;32;20049;-64
2022/11/03 08:59:17;;;;;;;14.93;7.20;;;;;;;9.68;100.00;97598.03;18539768;32;20049;-64
2022/11/03 09:09:24;;;;;;;11.20;8.13;;;;;;;9.75;100.00;97578.88;18566799;32;20101;-64
2022/11/03 09:19:49;;;;;;;12.20;7.82;;;;;;;10.05;100.00;97571.91;18544875;32;20057;-64
2022/11/03 09:30:02;;;;;;;9.27;6.68;;;;;;;10.51;100.00;97548.41;18565318;32;20082;-64
2022/11/03 09:40:56;;;;;;;;;;;;;;;;;;;;;
2022/11/03 09:51:08;;;;;;;7.10;4.95;;;;;;;11.17;100.00;97530.38;18425059;32;20385;-64
2022/11/03 10:01:12;;;;;;;7.45;5.47;;;;;;;11.35;100.00;97534.34;18423743;32;20045;-64
2022/11/03 10:11:30;;;;;;;9.80;5.07;;;;;;;11.80;100.00;97498.31;18467813;32;20052;-64
2022/11/03 10:21:39;;;;;;;8.77;5.15;;;;;;;12.20;100.00;97482.88;18496423;32;20395;-65
2022/11/03 10:31:44;;;;;;;9.13;5.55;;;;;;;12.46;100.00;97442.75;18497030;32;20116;-65
2022/11/03 10:41:59;;;;;;;7.95;5.45;;;;;;;12.73;100.00;97435.13;18496223;32;20441;-64
2022/11/03 10:52:19;;;;;;;6.73;5.20;;;;;;;12.85;100.00;97411.09;18500257;32;20048;-65
2022/11/03 11:02:39;;;;;;;8.93;5.30;;;;;;;13.14;100.00;97385.75;18546674;32;20041;-64
2022/11/03 11:13:21;;;;;;;9.02;4.95;;;;;;;13.40;98.64;97375.34;18560114;32;20052;-65
2022/11/03 11:23:43;;;;;;;8.65;5.30;;;;;;;13.65;98.69;97343.41;18567543;32;20057;-63
2022/11/03 11:34:08;;;;;;;7.47;4.93;;;;;;;13.69;97.44;97322.72;18572595;32;20330;-63
2022/11/03 11:44:39;;;;;;;7.70;4.05;;;;;;;13.42;94.80;97294.38;18572083;32;20040;-65
2022/11/03 11:54:47;;;;;;;7.60;3.90;;;;;;;13.38;97.51;97267.00;18557529;32;20044;-64
2022/11/03 12:05:02;;;;;;;4.47;3.20;;;;;;;13.38;96.73;97250.72;18570572;32;20443;-62
2022/11/03 12:15:45;;;;;;;3.95;2.75;;;;;;;13.32;98.83;97224.75;18570424;32;20061;-64
2022/11/03 12:25:51;;;;;;;4.43;2.85;;;;;;;13.28;100.00;97188.44;18569276;32;20093;-62
2022/11/03 12:35:57;;;;;;;2.75;2.45;;;;;;;13.39;99.51;97160.00;18555137;32;20098;-62
2022/11/03 12:46:00;;;;;;;7.13;3.23;;;;;;;13.59;98.62;97138.19;18554127;32;20072;-62
2022/11/03 12:56:09;;;;;;;4.80;3.20;;;;;;;13.53;92.79;97119.28;18567023;32;20041;-64
2022/11/03 13:06:14;;;;;;;5.25;3.65;;;;;;;13.46;93.47;97074.63;18566970;32;20421;-64
2022/11/03 13:16:18;;;;;;;6.07;3.70;;;;;;;13.43;89.06;97072.50;18414518;32;20107;-62
2022/11/03 13:26:21;;;;;;;;;;;;;;;13.22;92.42;97052.00;18413970;32;20184;-62
2022/11/03 13:36:24;;;;;;;8.18;3.72;;;;;;;12.97;91.96;97017.22;18413806;32;19996;-62
2022/11/03 13:46:28;;;;;;;;;;;;;;;12.80;93.39;97002.31;18445817;32;20056;-62
2022/11/03 13:56:32;;;;;;;5.70;3.30;;;;;;;12.73;94.29;96985.66;18563652;32;19952;-62
2022/11/03 14:06:56;;;;;;;;;;;;;;;12.70;90.75;96970.78;18563534;32;20103;-62
2022/11/03 14:16:59;;;;;;;7.57;3.40;;;;;;;12.70;88.70;96948.25;18548578;32;19963;-62
2022/11/03 14:27:02;;;;;;;7.28;4.47;;;;;;;12.57;88.87;96940.94;18410177;32;20072;-62
2022/11/03 14:37:09;;;;;;;9.20;5.07;;;;;;;12.43;89.47;96922.75;18422544;32;20057;-62
2022/11/03 14:47:22;;;;;;;11.45;5.43;;;;;;;12.27;90.65;96897.03;18422513;32;20077;-62
2022/11/03 14:57:25;;;;;;;8.90;5.28;;;;;;;12.10;91.79;96884.06;18434410;32;20112;-61
2022/11/03 15:07:28;;;;;;;10.68;5.60;;;;;;;11.90;93.17;96877.88;18494526;32;20069;-62
2022/11/03 15:17:31;;;;;;;10.60;6.50;;;;;;;11.79;94.15;96882.66;18495213;32;20041;-62
2022/11/03 15:27:35;;;;;;;11.65;6.05;;;;;;;11.65;94.76;96846.66;18493595;32;20077;-62
2022/11/03 15:37:38;;;;;;;9.73;5.57;;;;;;;11.52;95.20;96840.91;18493636;32;20063;-64
2022/11/03 15:47:42;;;;;;;8.00;5.18;;;;;;;11.38;96.77;96834.62;18480239;32;20115;-64
2022/11/03 15:57:46;;;;;;;9.37;5.43;;;;;;;11.31;96.27;96839.63;18534487;32;20045;-64
2022/11/03 16:07:50;;;;;;;8.80;5.78;;;;;;;11.19;98.36;96832.72;18562176;32;20087;-65
2022/11/03 16:18:01;;;;;;;9.93;5.60;;;;;;;11.08;99.50;96825.88;18556044;32;20482;-64
2022/11/03 16:28:04;;;;;;;7.07;5.00;;;;;;;11.01;100.00;96814.63;18569537;32;20103;-64
2022/11/03 16:38:08;;;;;;;6.90;4.40;;;;;;;11.03;100.00;96785.37;18568667;32;20119;-65
2022/11/03 16:48:12;;;;;;;6.95;4.22;;;;;;;10.98;100.00;96761.13;18554132;32;20060;-64
2022/11/03 16:58:15;;;;;;;7.65;4.00;;;;;;;10.87;100.00;96748.84;18567373;32;20083;-64
2022/11/03 17:08:18;;;;;;;6.90;4.47;;;;;;;10.78;100.00;96802.81;18552923;32;20040;-64
2022/11/03 17:18:42;;;;;;;7.00;4.00;;;;;;;10.78;100.00;96833.34;18566210;32;20105;-64
2022/11/03 17:28:45;;;;;;;7.70;4.97;;;;;;;10.68;100.00;96809.16;18490658;32;20069;-62
2022/11/03 17:38:48;;;;;;;7.53;4.78;;;;;;;10.60;100.00;96780.88;18477547;32;20061;-64
2022/11/03 17:48:50;;;;;;;9.10;5.03;;;;;;;10.55;100.00;96764.75;18489861;32;20108;-64
2022/11/03 17:58:53;;;;;;;8.23;5.12;;;;;;;10.49;100.00;96750.47;18490539;32;20092;-64
2022/11/03 18:08:56;;;;;;;6.53;5.03;;;;;;;10.46;100.00;96764.56;18498766;32;20068;-64
2022/11/03 18:18:59;;;;;;;5.43;4.43;;;;;;;10.43;100.00;96727.34;18497843;32;20076;-64
2022/11/03 18:29:01;;;;;;;6.07;4.45;;;;;;;10.43;100.00;96718.41;18496828;32;20056;-64
2022/11/03 18:39:04;;;;;;;6.93;4.75;;;;;;;10.42;100.00;96701.41;18495552;32;20486;-64
2022/11/03 18:49:07;;;;;;;9.35;5.72;;;;;;;10.43;100.00;96692.22;18495159;32;20053;-65
2022/11/03 18:59:19;;;;;;;6.07;4.68;;;;;;;10.43;100.00;96676.00;18545616;32;20379;-64
2022/11/03 19:09:25;;;;;;;7.43;6.22;;;;;;;10.42;100.00;96663.56;18546386;32;20121;-64
2022/11/03 19:19:28;;;;;;;9.80;5.93;;;;;;;10.43;100.00;96662.47;18553508;32;20053;-64
2022/11/03 19:29:35;;;;;;;8.75;6.00;;;;;;;10.44;100.00;96650.56;18559803;32;20455;-64
2022/11/03 19:39:41;;;;;;;6.22;4.25;;;;;;;10.46;100.00;96645.66;18545733;32;20361;-64
2022/11/03 19:49:45;;;;;;;4.07;2.35;;;;;;;10.49;100.00;96646.97;18571951;32;20060;-65
2022/11/03 19:59:48;;;;;;;2.17;1.00;;;;;;;10.58;100.00;96699.28;18570906;32;20096;-64
2022/11/03 20:09:52;;;;;;;1.23;0.80;;;;;;;10.80;100.00;96796.00;18570670;32;20061;-64
2022/11/03 20:19:55;;;;;;;1.12;0.73;;;;;;;10.75;100.00;96836.63;18570039;32;20073;-64
2022/11/03 20:29:58;;;;;;;4.22;0.77;;;;;;;10.61;100.00;96803.31;18430184;32;20077;-64
2022/11/03 20:40:00;;;;;;;1.27;0.50;;;;;;;10.43;100.00;96813.00;18430304;32;20121;-65
2022/11/03 20:50:03;;;;;;;3.80;0.33;;;;;;;10.25;100.00;96844.25;18429164;32;20073;-65
2022/11/03 21:00:11;;;;;;;0.60;0.50;;;;;;;10.12;100.00;96887.06;18318826;32;20137;-64
2022/11/03 21:10:16;;;;;;;1.00;0.60;;;;;;;10.05;100.00;96943.34;18409564;32;20065;-65
2022/11/03 21:20:22;;;;;;;1.20;0.40;;;;;;;9.96;100.00;96948.56;18415089;32;20535;-65
2022/11/03 21:30:25;;;;;;;2.67;0.27;;;;;;;9.88;100.00;96980.75;18538908;32;20069;-63
2022/11/03 21:40:28;;;;;;;0.90;0.20;;;;;;;9.70;100.00;97022.72;18565277;32;20108;-63
2022/11/03 21:50:30;;;;;;;1.87;0.30;;;;;;;9.57;100.00;97019.56;18550457;32;20057;-63
2022/11/03 22:00:33;;;;;;;0.87;0.30;;;;;;;9.50;100.00;97048.75;18557026;32;20048;-64
2022/11/03 22:10:38;;;;;;;0.30;0.20;;;;;;;9.44;100.00;97049.84;18548431;32;20048;-63
2022/11/03 22:51:45;;;;;;;0.70;0.20;;;;;;;9.30;100.00;97042.38;18544838;32;20445;-63
2022/11/03 23:01:48;;;;;;;1.33;0.30;;;;;;;9.23;100.00;97022.19;18421893;32;20472;-63
2022/11/03 23:11:50;;;;;;;1.63;0.30;;;;;;;9.18;100.00;97024.91;18408741;32;20104;-63
2022/11/03 23:21:53;;;;;;;0.67;0.33;;;;;;;9.09;100.00;97038.97;18432166;32;20389;-63
2022/11/03 23:31:57;;;;;;;1.30;0.17;;;;;;;9.13;100.00;97058.91;18492318;32;20087;-63
2022/11/03 23:42:00;;;;;;;3.47;0.30;;;;;;;9.22;100.00;97077.22;18507505;32;20098;-63
2022/11/03 23:52:02;;;;;;;0.23;0.10;;;;;;;9.32;100.00;97093.38;18506879;32;20092;-63
